Time;durP1;ratioP1;P1;durP2;ratioP2;P2;SDS_P1;SDS_P2;PMS_P1;PMS_P2;Temp;Humidity;BMP_temperature;BMP_pressure;BME280_temperature;BME280_humidity;BME280_pressure;Samples;Min_cycle;Max_cycle;Signal;HPM_P1;HPM_P2
2022/12/26 00:01:43;;;;;;;20.60;15.07;;;;;;;16.92;61.93;100981.53;5008244;28;20077;-68
2022/12/26 00:04:09;;;;;;;21.05;14.23;;;;;;;16.83;62.10;100981.22;5008789;28;20041;-69
2022/12/26 00:06:34;;;;;;;24.80;15.77;;;;;;;16.82;61.93;100993.16;5005048;28;20505;-69
2022/12/26 00:09:02;;;;;;;20.75;15.52;;;;;;;16.10;63.54;100981.16;5006618;28;20196;-69
2022/12/26 00:11:27;;;;;;;22.00;15.05;;;;;;;16.52;62.97;100988.34;5008104;28;20385;-70
2022/12/26 00:13:59;;;;;;;22.35;16.13;;;;;;;16.80;62.34;100992.59;5009821;28;20042;-68
2022/12/26 00:16:25;;;;;;;19.73;15.25;;;;;;;16.61;62.78;100986.78;5009804;28;20038;-69
2022/12/26 00:18:51;;;;;;;28.00;15.65;;;;;;;16.85;62.10;100994.50;5009891;28;20038;-68
2022/12/26 00:21:20;;;;;;;20.27;15.30;;;;;;;16.78;62.23;100986.63;5009802;28;20359;-68
2022/12/26 00:23:46;;;;;;;19.73;14.52;;;;;;;16.72;62.50;100984.94;5007937;28;20071;-68
2022/12/26 00:26:14;;;;;;;19.88;14.90;;;;;;;16.78;62.34;100996.66;5008053;28;20538;-68
2022/12/26 00:28:40;;;;;;;20.90;14.20;;;;;;;16.47;63.55;100990.97;5009341;28;20135;-69
2022/12/26 00:31:09;;;;;;;20.50;13.82;;;;;;;16.13;64.51;100984.22;5009145;28;20046;-68
2022/12/26 00:33:36;;;;;;;20.52;14.27;;;;;;;16.50;63.32;100993.22;5007509;28;20033;-69
2022/12/26 00:36:21;;;;;;;19.55;13.93;;;;;;;16.29;64.26;100977.00;5008496;28;20054;-69
2022/12/26 00:38:47;;;;;;;18.70;11.88;;;;;;;15.36;67.62;100990.94;5009077;28;20030;-68
2022/12/26 00:41:14;;;;;;;26.80;12.85;;;;;;;15.50;67.45;100998.47;5009602;28;20117;-69
2022/12/26 00:43:40;;;;;;;23.55;13.57;;;;;;;15.09;68.86;101009.03;5003818;28;20042;-69
2022/12/26 00:46:06;;;;;;;25.75;13.65;;;;;;;15.06;69.57;101007.63;5006165;28;20073;-69
2022/12/26 00:48:31;;;;;;;23.20;12.38;;;;;;;14.83;71.36;101014.09;5002641;28;20045;-68
2022/12/26 00:50:57;;;;;;;28.98;15.07;;;;;;;15.27;69.66;101006.81;5004159;28;20520;-69
2022/12/26 00:53:23;;;;;;;26.60;15.15;;;;;;;15.15;70.58;101013.44;5004205;28;20038;-69
2022/12/26 00:55:49;;;;;;;27.25;16.63;;;;;;;15.92;67.01;100998.63;5008189;28;20026;-69
2022/12/26 00:58:15;;;;;;;36.30;17.13;;;;;;;15.66;67.42;101008.38;5008270;28;20652;-70
2022/12/26 01:00:40;;;;;;;31.13;17.98;;;;;;;15.75;67.13;101006.06;4999680;28;20052;-69
2022/12/26 01:03:07;;;;;;;37.40;18.05;;;;;;;15.59;67.35;101007.78;5001852;28;20530;-69
2022/12/26 01:05:33;;;;;;;37.72;17.73;;;;;;;16.06;66.18;101007.19;4987835;28;20045;-67
2022/12/26 01:07:58;;;;;;;37.55;18.55;;;;;;;15.55;68.24;101013.94;5003130;28;20046;-68
2022/12/26 01:10:24;;;;;;;35.80;18.38;;;;;;;15.80;67.53;101014.25;5004040;28;20042;-68
2022/12/26 01:12:50;;;;;;;35.60;18.50;;;;;;;16.13;66.50;101013.22;5003254;28;20176;-68
2022/12/26 01:15:15;;;;;;;46.80;20.15;;;;;;;15.78;67.12;101011.78;5009197;28;20064;-69
2022/12/26 01:17:40;;;;;;;35.38;17.20;;;;;;;15.89;67.65;101015.41;5011086;28;20060;-69
2022/12/26 01:20:06;;;;;;;41.17;19.02;;;;;;;16.29;65.82;101007.69;5008193;28;20029;-68
2022/12/26 01:22:32;;;;;;;37.25;19.67;;;;;;;16.35;65.82;101008.53;5011476;28;20034;-69
2022/12/26 01:24:58;;;;;;;47.85;20.90;;;;;;;16.05;67.07;101019.91;5011373;28;20414;-69
2022/12/26 01:27:25;;;;;;;38.45;20.38;;;;;;;15.54;68.71;101015.03;5011608;28;20109;-69
2022/12/26 01:29:51;;;;;;;41.05;20.77;;;;;;;15.18;70.47;101015.63;5010560;28;20041;-69
2022/12/26 01:32:17;;;;;;;44.15;20.08;;;;;;;15.36;70.16;101018.84;5011609;28;20128;-70
2022/12/26 01:34:43;;;;;;;42.38;21.90;;;;;;;15.79;67.88;101021.56;5011433;28;20116;-70
2022/12/26 01:37:14;;;;;;;41.70;21.17;;;;;;;14.97;71.80;101030.78;5011617;28;20034;-69
2022/12/26 01:39:40;;;;;;;42.25;21.60;;;;;;;15.44;69.64;101032.00;5011372;28;20037;-69
2022/12/26 01:42:15;;;;;;;44.17;22.50;;;;;;;15.09;71.15;101036.09;5007337;28;20382;-69
2022/12/26 01:45:04;;;;;;;39.60;22.08;;;;;;;14.90;72.20;101044.47;5011664;28;20053;-70
2022/12/26 01:47:57;;;;;;;41.95;22.90;;;;;;;15.22;70.96;101035.72;5009812;28;20073;-67
2022/12/26 01:50:38;;;;;;;45.70;23.90;;;;;;;14.69;73.40;101037.13;5010881;28;20045;-67
2022/12/26 01:53:16;;;;;;;;;;;;;;;15.31;70.81;101036.94;5010536;28;20052;-69
2022/12/26 01:55:46;;;;;;;38.70;22.83;;;;;;;14.83;72.71;101041.16;5011884;28;20377;-69
2022/12/26 01:58:19;;;;;;;40.25;22.95;;;;;;;15.10;72.41;101041.25;5011859;28;20042;-69
2022/12/26 02:00:44;;;;;;;47.22;25.27;;;;;;;14.84;72.05;101031.94;4994670;28;20030;-69
2022/12/26 02:05:58;;;;;;;49.38;27.23;;;;;;;14.96;72.34;101021.00;5012112;28;20057;-70
2022/12/26 02:08:30;;;;;;;45.55;24.55;;;;;;;14.63;73.52;101021.91;5011696;28;20041;-69
2022/12/26 02:11:19;;;;;;;46.20;25.60;;;;;;;14.88;72.91;101026.84;5011371;28;20204;-69
2022/12/26 02:13:45;;;;;;;40.15;22.98;;;;;;;14.71;73.72;101034.19;5009313;28;20038;-68
2022/12/26 02:16:14;;;;;;;38.72;24.73;;;;;;;14.76;72.69;101028.84;5011824;28;20497;-70
2022/12/26 02:18:39;;;;;;;46.47;25.67;;;;;;;15.32;71.15;101030.44;5011626;28;20042;-68
2022/12/26 02:21:26;;;;;;;45.58;26.15;;;;;;;15.30;70.44;101027.97;5014596;28;20506;-69
2022/12/26 02:24:28;;;;;;;43.08;25.15;;;;;;;15.19;71.36;101028.09;5016264;28;20030;-70
2022/12/26 02:27:03;;;;;;;47.00;26.52;;;;;;;15.35;70.73;101028.03;5015644;28;20069;-69
2022/12/26 02:29:46;;;;;;;48.42;27.02;;;;;;;15.11;71.07;101028.53;5016148;28;20069;-69
2022/12/26 02:32:45;;;;;;;47.78;26.67;;;;;;;15.12;71.94;101035.56;5000579;28;20046;-68
2022/12/26 02:35:23;;;;;;;48.33;26.25;;;;;;;15.26;71.29;101029.56;5015356;28;20071;-68
2022/12/26 02:38:15;;;;;;;48.58;25.48;;;;;;;14.75;74.03;101027.22;5015305;28;20454;-69
2022/12/26 02:40:52;;;;;;;46.08;25.85;;;;;;;15.31;70.83;101020.69;5015547;28;20132;-69
2022/12/26 02:43:47;;;;;;;46.28;26.42;;;;;;;15.28;70.62;101023.88;5015824;28;20494;-68
2022/12/26 02:49:24;;;;;;;44.67;24.90;;;;;;;15.45;70.63;101016.56;4934896;29;20472;-68
2022/12/26 03:15:04;;;;;;;39.65;22.23;;;;;;;15.50;69.36;101011.19;4935017;29;20107;-69
2022/12/26 03:17:34;;;;;;;40.70;24.33;;;;;;;16.10;67.06;101011.81;4919503;29;20043;-69
2022/12/26 03:20:05;;;;;;;38.75;21.92;;;;;;;15.63;69.23;101005.38;4933632;29;20039;-70
2022/12/26 03:22:35;;;;;;;36.70;22.63;;;;;;;15.88;68.20;101000.22;4934505;29;20126;-70
2022/12/26 03:27:50;;;;;;;41.63;23.30;;;;;;;16.30;66.24;100990.31;5013182;28;20394;-70
2022/12/26 03:32:59;;;;;;;41.10;24.35;;;;;;;16.34;65.24;100998.75;5014380;28;20137;-70
2022/12/26 03:35:28;;;;;;;39.28;23.48;;;;;;;15.97;66.44;100990.56;5006998;28;20128;-70
2022/12/26 03:38:15;;;;;;;40.90;24.85;;;;;;;15.88;66.02;101000.22;5014365;28;20061;-68
2022/12/26 04:19:37;;;;;;;56.85;28.95;;;;;;;14.37;71.85;101036.06;5013668;28;19924;-69
2022/12/26 04:44:48;;;;;;;54.22;30.27;;;;;;;14.60;69.97;101016.97;5013621;28;20045;-68
2022/12/26 04:47:14;;;;;;;52.50;28.35;;;;;;;14.36;71.01;101026.31;5012890;28;20045;-70
2022/12/26 04:52:53;;;;;;;49.40;29.50;;;;;;;14.44;70.68;101036.75;5012832;28;20049;-69
2022/12/26 04:55:11;;;;;;;53.72;29.52;;;;;;;14.35;71.18;101037.41;5006508;28;20056;-68
2022/12/26 04:57:37;;;;;;;54.10;30.15;;;;;;;14.30;71.02;101034.59;5012460;28;20433;-70
2022/12/26 05:00:03;;;;;;;50.50;28.20;;;;;;;14.27;70.57;101035.84;5009502;28;20124;-69
2022/12/26 05:10:40;;;;;;;46.13;26.58;;;;;;;13.66;72.69;101031.22;5011161;28;20131;-69
2022/12/26 05:13:06;;;;;;;37.78;21.20;;;;;;;13.99;72.08;101022.41;5010610;28;20125;-69
2022/12/26 05:28:40;;;;;;;49.22;29.20;;;;;;;14.59;69.94;101036.16;5011446;28;20049;-70
2022/12/26 05:29:13;;;;;;;45.08;28.50;;;;;;;15.06;68.29;101018.44;5005164;28;20429;-70
2022/12/26 05:31:38;;;;;;;44.00;28.08;;;;;;;14.92;68.66;101022.56;5011239;28;20129;-68
2022/12/26 05:34:09;;;;;;;42.92;26.02;;;;;;;15.86;65.67;101002.41;5011244;28;20529;-69
2022/12/26 05:36:48;;;;;;;41.25;26.15;;;;;;;15.51;66.43;101012.81;5011062;28;20040;-69
2022/12/26 05:39:13;;;;;;;38.67;23.63;;;;;;;16.04;64.86;101012.84;5011161;28;20033;-70
2022/12/26 05:41:39;;;;;;;34.65;23.45;;;;;;;15.16;67.43;101015.06;5011355;28;20060;-69
2022/12/26 05:44:06;;;;;;;38.88;23.92;;;;;;;14.87;69.22;101017.09;5011139;28;20088;-70
2022/12/26 05:46:31;;;;;;;36.28;24.52;;;;;;;15.00;68.83;101016.75;5011381;28;20041;-71
2022/12/26 05:48:57;;;;;;;39.72;23.00;;;;;;;15.35;67.47;101011.00;5011860;28;20487;-70
2022/12/26 05:51:22;;;;;;;33.33;22.05;;;;;;;15.15;68.60;101021.56;5011650;28;20061;-69
2022/12/26 05:53:48;;;;;;;30.90;21.00;;;;;;;15.01;67.93;101018.41;5011862;28;20034;-69
2022/12/26 05:56:15;;;;;;;37.47;23.02;;;;;;;15.06;68.31;101026.56;5011264;28;20041;-69
2022/12/26 05:58:41;;;;;;;32.97;20.80;;;;;;;15.03;68.81;101029.78;5010352;28;20363;-69
2022/12/26 06:01:13;;;;;;;31.77;21.17;;;;;;;14.31;69.99;101031.63;5011701;28;20034;-69
2022/12/26 06:03:42;;;;;;;36.10;22.67;;;;;;;14.73;69.80;101029.34;5010982;28;20514;-69
2022/12/26 06:06:08;;;;;;;33.20;21.33;;;;;;;14.90;69.76;101022.84;5005544;28;20036;-69
2022/12/26 06:08:34;;;;;;;34.00;23.10;;;;;;;15.10;68.01;101026.88;5003956;28;20026;-69
2022/12/26 06:11:11;;;;;;;35.17;22.45;;;;;;;14.47;70.40;101022.72;5010586;28;20046;-70
2022/12/26 06:13:37;;;;;;;38.25;22.73;;;;;;;14.34;71.44;101033.88;5011763;28;20406;-70
2022/12/26 06:16:14;;;;;;;40.55;25.05;;;;;;;14.57;70.02;101014.75;5011520;28;20116;-69
2022/12/26 06:18:39;;;;;;;34.67;24.60;;;;;;;14.34;71.15;101008.72;5011507;28;20037;-70
2022/12/26 06:21:07;;;;;;;36.55;24.42;;;;;;;14.86;68.44;101005.47;5011288;28;20068;-70
2022/12/26 06:23:34;;;;;;;40.47;25.15;;;;;;;15.14;67.62;101004.47;5011896;28;20473;-70
2022/12/26 06:25:59;;;;;;;37.15;25.67;;;;;;;14.73;68.45;100995.00;5011430;28;20037;-67
2022/12/26 06:28:25;;;;;;;36.25;22.27;;;;;;;14.04;71.13;100996.28;5011796;28;20072;-69
2022/12/26 06:30:51;;;;;;;41.67;24.70;;;;;;;14.59;69.61;101000.97;4993318;28;20096;-70
2022/12/26 06:33:17;;;;;;;38.22;22.10;;;;;;;14.39;70.89;100993.38;5011545;28;20026;-69
2022/12/26 06:35:43;;;;;;;34.20;23.33;;;;;;;14.20;70.71;100993.84;5011637;28;20049;-69
2022/12/26 06:38:09;;;;;;;39.85;24.25;;;;;;;14.65;69.80;100991.88;5011321;28;20042;-70
2022/12/26 06:40:38;;;;;;;33.83;21.75;;;;;;;15.08;67.37;100988.41;5024301;28;20072;-71
2022/12/26 06:43:03;;;;;;;34.03;22.80;;;;;;;14.75;68.97;100984.75;5011412;28;20502;-71
2022/12/26 06:45:29;;;;;;;35.53;22.27;;;;;;;14.72;68.08;100990.63;5011302;28;20037;-71
2022/12/26 06:47:54;;;;;;;29.10;21.48;;;;;;;14.64;69.00;100993.75;5010622;28;20026;-70
2022/12/26 06:50:21;;;;;;;29.98;19.73;;;;;;;14.86;68.12;100988.41;5011151;28;20061;-71
2022/12/26 06:52:47;;;;;;;35.55;21.00;;;;;;;14.25;70.60;101007.47;5011270;28;20137;-71
2022/12/26 06:55:12;;;;;;;27.95;19.65;;;;;;;14.77;68.74;100996.13;4995168;28;20030;-71
2022/12/26 06:57:38;;;;;;;28.63;17.92;;;;;;;14.24;69.87;100995.00;5011533;28;20041;-70
2022/12/26 07:00:03;;;;;;;26.48;16.85;;;;;;;13.66;71.81;100998.81;5011248;28;20121;-71
2022/12/26 07:02:29;;;;;;;28.25;17.75;;;;;;;14.68;68.77;100996.81;5011662;28;20378;-69
2022/12/26 07:04:54;;;;;;;30.70;17.65;;;;;;;14.79;68.16;101004.00;5010883;28;20081;-70
2022/12/26 07:07:19;;;;;;;30.55;17.30;;;;;;;14.34;69.52;101004.13;5014329;28;20120;-70
2022/12/26 07:09:45;;;;;;;22.10;14.60;;;;;;;13.97;71.20;100992.91;5014945;28;20038;-69
2022/12/26 07:12:10;;;;;;;24.30;15.82;;;;;;;14.26;70.10;101003.66;5014771;28;20038;-69
2022/12/26 07:14:35;;;;;;;23.35;15.15;;;;;;;14.21;69.95;100990.09;5013605;28;20449;-70
2022/12/26 07:17:01;;;;;;;17.38;11.50;;;;;;;13.66;71.82;101003.44;5014842;28;20635;-71
2022/12/26 07:19:26;;;;;;;24.73;13.52;;;;;;;13.71;72.03;100995.41;5015140;28;20121;-71
2022/12/26 07:21:51;;;;;;;19.42;11.85;;;;;;;13.88;71.24;101005.19;5015086;28;20041;-70
2022/12/26 07:24:19;;;;;;;17.92;12.85;;;;;;;14.06;69.92;101007.69;5014798;28;20163;-72
2022/12/26 07:26:46;;;;;;;14.25;10.77;;;;;;;13.72;72.16;101015.97;5015258;28;20459;-69
2022/12/26 07:29:12;;;;;;;17.50;11.80;;;;;;;14.06;70.65;101007.69;5017727;28;20026;-70
2022/12/26 07:31:39;;;;;;;17.92;10.13;;;;;;;13.59;71.55;100998.16;5027632;28;20092;-71
2022/12/26 07:34:04;;;;;;;16.17;10.75;;;;;;;14.40;68.86;101011.25;5000189;28;20038;-71
2022/12/26 07:36:29;;;;;;;14.25;10.50;;;;;;;14.19;69.61;101009.22;5014338;28;20041;-71
2022/12/26 07:38:55;;;;;;;16.67;10.32;;;;;;;13.97;70.78;101003.72;5015140;28;20029;-71
2022/12/26 07:44:05;;;;;;;13.98;9.55;;;;;;;13.95;70.41;101016.66;5014282;28;20048;-72
2022/12/26 07:46:31;;;;;;;13.57;8.90;;;;;;;14.35;68.51;101003.03;5014100;28;20128;-71
2022/12/26 07:48:56;;;;;;;15.73;7.70;;;;;;;14.01;69.92;100993.25;5013753;28;20057;-73
2022/12/26 07:51:22;;;;;;;16.13;9.65;;;;;;;14.22;69.50;100991.72;5013887;28;20038;-71
2022/12/26 07:53:47;;;;;;;14.25;8.18;;;;;;;14.28;68.63;100988.06;5014686;28;20030;-71
2022/12/26 07:56:13;;;;;;;12.88;7.95;;;;;;;14.33;69.16;100998.97;5014007;28;20069;-72
2022/12/26 07:58:38;;;;;;;11.57;7.47;;;;;;;14.16;69.24;100992.69;5013796;28;20038;-71
2022/12/26 08:01:05;;;;;;;12.15;8.80;;;;;;;14.38;69.45;101007.16;5013817;28;20046;-72
2022/12/26 08:03:30;;;;;;;13.68;7.63;;;;;;;14.28;69.00;100993.47;5013461;28;20037;-70
2022/12/26 08:05:56;;;;;;;16.92;8.60;;;;;;;14.66;67.88;101002.44;5014577;28;20383;-71
2022/12/26 08:08:22;;;;;;;11.10;7.47;;;;;;;14.06;70.22;100990.63;5012499;28;20041;-70
2022/12/26 08:10:47;;;;;;;19.95;9.40;;;;;;;14.74;67.90;100995.81;5013481;28;20038;-70
2022/12/26 08:13:13;;;;;;;14.98;7.65;;;;;;;14.66;67.97;100998.94;4997549;28;20026;-71
2022/12/26 08:15:39;;;;;;;16.33;8.93;;;;;;;14.45;68.71;100994.28;5011941;28;20034;-71
2022/12/26 08:18:05;;;;;;;10.95;7.05;;;;;;;14.63;67.93;100992.13;5012742;28;20041;-71
2022/12/26 08:20:30;;;;;;;10.48;6.55;;;;;;;14.90;67.65;100995.78;5014257;28;20460;-71
2022/12/26 08:22:56;;;;;;;11.23;5.72;;;;;;;14.00;70.17;101007.81;5013370;28;20045;-70
2022/12/26 08:25:21;;;;;;;11.70;7.43;;;;;;;14.59;68.70;101017.22;5013549;28;20034;-70
2022/12/26 08:27:47;;;;;;;12.90;6.60;;;;;;;14.99;67.55;101020.53;5013279;28;20038;-70
2022/12/26 08:30:12;;;;;;;9.73;6.38;;;;;;;14.57;68.73;101022.88;5013745;28;20112;-71
2022/12/26 08:32:38;;;;;;;10.15;5.82;;;;;;;14.71;67.87;101029.59;5028649;28;20054;-72
2022/12/26 08:35:03;;;;;;;10.95;6.20;;;;;;;14.73;68.18;101032.03;5012974;28;20168;-71
2022/12/26 08:37:29;;;;;;;10.88;5.50;;;;;;;14.56;69.05;101044.78;5013420;28;20048;-72
2022/12/26 08:39:54;;;;;;;11.65;5.93;;;;;;;14.36;69.70;101031.75;5013222;28;20128;-70
2022/12/26 08:42:21;;;;;;;19.05;5.80;;;;;;;13.64;71.76;101033.34;4991446;28;20398;-76
2022/12/26 08:44:46;;;;;;;13.07;6.95;;;;;;;14.60;68.72;101025.06;4992658;28;20058;-71
2022/12/26 08:47:13;;;;;;;15.68;7.13;;;;;;;15.14;67.22;101011.78;5013331;28;20037;-70
2022/12/26 08:49:38;;;;;;;19.17;5.20;;;;;;;14.37;69.65;101030.66;5012794;28;20517;-70
2022/12/26 08:52:04;;;;;;;10.57;4.68;;;;;;;14.42;69.37;101033.47;5012686;28;20135;-70
2022/12/26 08:54:30;;;;;;;11.30;5.13;;;;;;;14.60;69.21;101029.69;5013573;28;20030;-71
2022/12/26 08:56:55;;;;;;;11.95;4.32;;;;;;;14.43;69.54;101029.69;5013207;28;20525;-71
2022/12/26 08:59:21;;;;;;;11.13;5.35;;;;;;;14.32;69.74;101036.00;5011487;28;20144;-70
2022/12/26 09:01:46;;;;;;;7.93;4.65;;;;;;;14.44;69.35;101038.63;5008683;28;20079;-71
2022/12/26 09:04:12;;;;;;;8.27;5.03;;;;;;;15.22;67.00;101041.13;5005937;28;20047;-70
2022/12/26 09:06:38;;;;;;;4.97;4.28;;;;;;;14.53;68.85;101035.25;5003005;28;20053;-70
2022/12/26 09:09:05;;;;;;;13.10;4.30;;;;;;;14.37;69.71;101032.56;5005671;28;20049;-69
2022/12/26 09:11:31;;;;;;;7.63;4.13;;;;;;;14.84;67.57;101050.88;5009644;28;20092;-70
2022/12/26 09:13:59;;;;;;;8.07;3.53;;;;;;;14.71;67.79;101053.13;5012297;28;20117;-69
2022/12/26 09:16:27;;;;;;;9.70;4.18;;;;;;;14.28;69.68;101042.94;5012325;28;20042;-69
2022/12/26 09:18:56;;;;;;;6.47;3.50;;;;;;;14.53;68.64;101047.94;5007371;28;20038;-69
2022/12/26 09:21:22;;;;;;;8.13;3.00;;;;;;;14.72;68.46;101052.84;5005735;28;20117;-70
2022/12/26 09:23:47;;;;;;;6.28;3.58;;;;;;;14.06;70.52;101063.59;5008449;28;20386;-70
2022/12/26 09:26:18;;;;;;;6.18;2.88;;;;;;;14.29;70.63;101070.81;5008956;28;20034;-69
2022/12/26 09:28:45;;;;;;;13.05;3.70;;;;;;;14.26;69.75;101093.69;5005356;28;20044;-71
2022/12/26 09:31:16;;;;;;;6.65;2.47;;;;;;;14.47;69.61;101063.28;5009777;28;20062;-68
2022/12/26 09:33:42;;;;;;;4.43;2.08;;;;;;;14.26;69.37;101085.59;5010872;28;20046;-69
2022/12/26 09:36:11;;;;;;;9.80;3.08;;;;;;;14.84;67.89;101087.94;5009529;28;20028;-69
2022/12/26 09:38:36;;;;;;;4.78;2.53;;;;;;;14.61;68.42;101088.09;5009137;28;20033;-69
2022/12/26 09:41:17;;;;;;;2.97;2.28;;;;;;;14.73;68.04;101092.38;5011183;28;20478;-70
2022/12/26 09:44:02;;;;;;;7.00;2.45;;;;;;;14.73;67.81;101100.50;5009952;28;20038;-69
2022/12/26 09:46:32;;;;;;;9.20;2.42;;;;;;;14.69;68.65;101098.53;5017833;28;20038;-69
2022/12/26 09:49:07;;;;;;;4.57;2.08;;;;;;;14.43;69.10;101113.50;5008779;28;20126;-73
2022/12/26 09:51:35;;;;;;;9.02;2.95;;;;;;;14.98;66.59;101136.06;5010684;28;20042;-71
2022/12/26 09:54:04;;;;;;;6.88;3.22;;;;;;;15.07;66.90;101122.13;5010858;28;20774;-64
2022/12/26 09:56:35;;;;;;;11.13;2.45;;;;;;;14.35;69.06;101140.13;5010284;28;20025;-70
2022/12/26 09:59:12;;;;;;;6.93;1.80;;;;;;;14.42;69.37;101165.94;4995442;28;20125;-70
2022/12/26 10:01:38;;;;;;;18.08;3.03;;;;;;;13.51;70.14;101189.41;5006762;28;20044;-68
2022/12/26 10:04:09;;;;;;;18.08;2.50;;;;;;;12.71;70.99;101194.47;5009238;28;20128;-71
2022/12/26 10:06:40;;;;;;;19.40;3.60;;;;;;;12.02;70.93;101219.22;5009253;28;20049;-71
2022/12/26 10:09:44;;;;;;;20.75;2.95;;;;;;;12.99;67.59;101212.72;5016796;28;20038;-70
2022/12/26 10:12:37;;;;;;;19.00;3.75;;;;;;;12.76;68.60;101215.31;5008339;28;20041;-70
2022/12/26 10:15:26;;;;;;;15.07;3.22;;;;;;;12.70;65.57;101221.63;5011113;28;20037;-69
2022/12/26 10:18:02;;;;;;;18.98;2.85;;;;;;;13.44;65.15;101229.22;5005944;28;20033;-68
2022/12/26 10:20:55;;;;;;;12.35;1.77;;;;;;;12.69;66.52;101231.63;5008378;28;20042;-69
2022/12/26 10:23:44;;;;;;;22.27;2.10;;;;;;;12.82;65.92;101234.13;5010232;28;20128;-68
2022/12/26 10:26:16;;;;;;;9.32;1.70;;;;;;;12.11;66.84;101244.81;5009746;28;20105;-70
2022/12/26 10:28:50;;;;;;;12.20;2.00;;;;;;;12.41;66.43;101246.72;5008454;28;20065;-69
2022/12/26 10:31:31;;;;;;;11.88;2.40;;;;;;;13.39;63.10;101245.28;5009531;28;20088;-69
2022/12/26 10:34:16;;;;;;;7.22;2.38;;;;;;;13.04;63.92;101258.72;5006486;28;20045;-70
2022/12/26 10:36:42;;;;;;;14.48;2.63;;;;;;;12.87;65.10;101260.41;5005353;28;20038;-70
2022/12/26 10:39:20;;;;;;;10.90;2.00;;;;;;;12.82;64.62;101261.09;5007451;28;20394;-70
2022/12/26 10:41:50;;;;;;;7.18;1.73;;;;;;;13.16;64.33;101275.75;5013251;28;20483;-69
2022/12/26 10:44:15;;;;;;;15.77;1.80;;;;;;;12.78;65.47;101275.25;5014753;28;20034;-68
2022/12/26 10:47:08;;;;;;;14.27;2.08;;;;;;;12.94;64.70;101280.84;5014917;28;20553;-68
2022/12/26 10:49:34;;;;;;;14.50;3.05;;;;;;;12.79;64.47;101280.44;5014894;28;20046;-69
2022/12/26 10:52:01;;;;;;;5.07;1.65;;;;;;;12.81;65.29;101278.34;5014806;28;20030;-68
2022/12/26 10:54:28;;;;;;;12.90;2.20;;;;;;;12.74;65.29;101292.94;5014659;28;20045;-69
2022/12/26 10:56:56;;;;;;;12.00;2.45;;;;;;;12.88;64.62;101294.41;5014404;28;20033;-70
2022/12/26 10:59:33;;;;;;;23.45;1.90;;;;;;;13.85;62.07;101296.59;5014303;28;20557;-69
2022/12/26 11:02:11;;;;;;;5.68;1.20;;;;;;;13.88;61.95;101306.94;5014033;28;20042;-69
2022/12/26 11:04:36;;;;;;;9.40;1.98;;;;;;;13.46;63.29;101314.31;5013918;28;20058;-69
2022/12/26 11:07:08;;;;;;;11.75;1.52;;;;;;;13.94;61.71;101320.34;5013133;28;20069;-70
2022/12/26 11:09:42;;;;;;;9.68;1.83;;;;;;;13.70;62.34;101318.66;5014437;28;20042;-70
2022/12/26 11:12:26;;;;;;;20.83;7.72;;;;;;;14.00;60.95;101319.38;5014062;28;20092;-70
2022/12/26 11:15:18;;;;;;;23.55;3.80;;;;;;;13.48;62.90;101328.41;5013822;28;20050;-69
2022/12/26 11:17:45;;;;;;;12.20;2.63;;;;;;;13.27;63.31;101331.63;4970891;28;20365;-68
2022/12/26 11:20:31;;;;;;;8.77;2.33;;;;;;;13.31;62.50;101332.81;4956708;28;20047;-70
2022/12/26 11:23:19;;;;;;;10.82;1.80;;;;;;;12.52;65.17;101343.03;4952644;29;20039;-70
2022/12/26 11:26:17;;;;;;;11.45;1.77;;;;;;;13.00;63.47;101355.44;4952599;29;20475;-70
2022/12/26 11:28:43;;;;;;;22.00;2.20;;;;;;;12.43;63.95;101347.03;4952050;29;20047;-69
2022/12/26 11:31:26;;;;;;;6.68;1.70;;;;;;;13.39;61.59;101342.44;4952398;29;20439;-69
2022/12/26 11:33:52;;;;;;;12.43;2.30;;;;;;;13.43;61.71;101349.03;4953148;28;20039;-68
2022/12/26 11:36:25;;;;;;;11.60;2.05;;;;;;;14.03;59.43;101353.22;4950996;29;20243;-69
2022/12/26 11:39:00;;;;;;;7.65;1.85;;;;;;;14.01;58.80;101356.16;4952197;29;20059;-69
2022/12/26 11:41:32;;;;;;;13.20;3.10;;;;;;;13.20;60.86;101361.44;4952397;29;20538;-69
2022/12/26 11:44:03;;;;;;;11.63;2.63;;;;;;;13.91;58.71;101366.75;4952442;29;20039;-70
2022/12/26 11:46:37;;;;;;;7.43;1.50;;;;;;;13.05;61.51;101384.50;4952580;29;20125;-70
2022/12/26 11:49:04;;;;;;;12.50;1.95;;;;;;;13.68;60.02;101374.00;4953018;29;20540;-69
2022/12/26 11:51:35;;;;;;;6.95;2.38;;;;;;;13.91;58.65;101380.25;4952401;28;20039;-70
2022/12/26 11:54:22;;;;;;;10.07;1.75;;;;;;;13.75;59.79;101374.69;4963423;28;20093;-69
2022/12/26 11:56:58;;;;;;;23.23;2.80;;;;;;;14.39;58.52;101384.59;5013251;28;20041;-70
2022/12/26 11:59:23;;;;;;;9.55;2.47;;;;;;;14.20;58.81;101389.31;5013148;28;20041;-69
2022/12/26 12:02:16;;;;;;;10.05;2.20;;;;;;;13.84;60.08;101389.50;5012942;28;20121;-70
2022/12/26 12:04:43;;;;;;;8.77;2.47;;;;;;;14.25;58.87;101394.81;5013107;28;20121;-70
2022/12/26 12:07:34;;;;;;;8.52;2.00;;;;;;;15.17;56.65;101391.13;5013395;28;20036;-69
2022/12/26 12:10:17;;;;;;;10.60;1.63;;;;;;;14.31;58.35;101399.31;5013189;28;20034;-70
2022/12/26 12:13:00;;;;;;;14.48;2.40;;;;;;;13.80;58.69;101393.72;5013141;28;20038;-70
2022/12/26 12:15:36;;;;;;;9.68;2.30;;;;;;;13.94;58.82;101403.25;5013026;28;20076;-69
2022/12/26 12:18:09;;;;;;;14.38;1.73;;;;;;;13.66;59.47;101401.22;5012841;28;20129;-69
2022/12/26 12:20:44;;;;;;;6.68;2.15;;;;;;;13.70;58.50;101404.31;5012832;28;20030;-70
2022/12/26 12:23:18;;;;;;;20.77;3.38;;;;;;;14.15;58.54;101407.28;5012662;28;20034;-71
2022/12/26 12:26:21;;;;;;;8.80;1.35;;;;;;;13.12;62.41;101412.19;5007125;28;20041;-70
2022/12/26 12:29:15;;;;;;;6.30;2.65;;;;;;;14.08;59.33;101405.53;5012505;28;20066;-69
2022/12/26 12:31:41;;;;;;;6.38;1.98;;;;;;;13.55;61.16;101401.19;5010691;28;20050;-69
2022/12/26 12:34:39;;;;;;;10.55;1.92;;;;;;;13.52;60.45;101407.88;5013098;28;20030;-70
2022/12/26 12:37:10;;;;;;;10.90;1.77;;;;;;;13.33;61.53;101410.84;5012681;28;20502;-69
2022/12/26 12:39:36;;;;;;;6.13;1.23;;;;;;;13.03;61.90;101419.75;5012583;28;20121;-71
2022/12/26 12:42:15;;;;;;;4.03;1.58;;;;;;;13.64;59.76;101421.44;5012586;28;20121;-70
2022/12/26 12:45:05;;;;;;;7.00;2.35;;;;;;;13.31;60.11;101412.97;5012473;28;20296;-70
2022/12/26 12:47:46;;;;;;;7.70;1.98;;;;;;;13.68;59.35;101423.41;5012488;28;20037;-70
2022/12/26 12:50:31;;;;;;;13.65;1.80;;;;;;;13.13;59.67;101436.25;5012328;28;20050;-69
2022/12/26 12:53:11;;;;;;;16.08;2.13;;;;;;;13.85;58.03;101429.00;5011992;28;20125;-70
2022/12/26 12:56:03;;;;;;;7.97;1.45;;;;;;;13.68;58.85;101436.13;4994687;28;20050;-70
2022/12/26 12:58:44;;;;;;;15.88;2.85;;;;;;;13.72;58.70;101434.59;4992563;28;20080;-69
2022/12/26 13:01:17;;;;;;;10.57;2.25;;;;;;;14.07;57.99;101443.59;4992967;28;20109;-70
2022/12/26 13:04:00;;;;;;;17.50;6.28;;;;;;;13.97;58.80;101438.75;5003776;28;20205;-70
2022/12/26 13:06:40;;;;;;;8.43;2.33;;;;;;;13.08;60.83;101449.59;5011745;28;20050;-69
2022/12/26 13:09:41;;;;;;;16.40;5.32;;;;;;;13.38;59.49;101454.19;5011882;28;20048;-70
2022/12/26 13:12:13;;;;;;;9.15;2.78;;;;;;;13.77;58.83;101449.06;5012064;28;20038;-70
2022/12/26 13:14:43;;;;;;;15.70;6.13;;;;;;;13.29;60.09;101455.59;5011962;28;20053;-68
2022/12/26 13:17:15;;;;;;;12.90;1.20;;;;;;;13.27;60.89;101463.88;5012073;28;20038;-72
2022/12/26 13:19:59;;;;;;;6.38;1.42;;;;;;;12.34;62.35;101465.13;5012143;28;20038;-70
2022/12/26 13:24:22;;;;;;;12.40;1.92;;;;;;;13.34;59.98;101464.63;5011801;28;20037;-70
2022/12/26 13:25:19;;;;;;;11.52;2.35;;;;;;;13.25;60.24;101463.28;5012105;28;20074;-70
2022/12/26 13:27:47;;;;;;;8.10;2.38;;;;;;;13.52;59.11;101463.78;5011835;28;20052;-71
2022/12/26 13:30:15;;;;;;;11.00;2.33;;;;;;;12.93;58.75;101469.91;5011714;28;20042;-70
2022/12/26 13:32:41;;;;;;;13.82;2.35;;;;;;;12.63;60.01;101472.50;5011605;28;20030;-69
2022/12/26 13:35:44;;;;;;;13.13;3.42;;;;;;;13.58;57.01;101487.16;5010247;28;20064;-70